Riviere-A-Pierre, Canada
Current Conditions -  °F | °C
As of 8:34 AM on Thursday 18 Dec 2014 (Local Time) from CYOY Reporting Station
Light Snow Light Snow  
Wind Chill: 28°   Ceiling: 1400
Heat Index: 28°   Visibility: 1.2mi
Dew Point: 28°   Wind: 0mph
Humidity: 100%   Direction: NA
Pressure: 29.75"   Gusts: NA
Location:  46.98°N, 72.18°W
Report Text: CYOY 181334Z AUTO 00000KT 1 1/4SM -SN FEW009 OVC014 M02/M02 A2975
Loading
Personal Weather Stations






























Interactive Weather Map New forecast layout! Learn more

10-Day Weather Forecast

Advertisements
Track Severe Weather on mobile